sensor_id;sensor_type;location;lat;lon;timestamp;P1;durP1;ratioP1;P2;durP2;ratioP2
49578;SDS011;35483;50.828;3.228;2023-04-24T00:01:00;4.25;;;3.85;;
49578;SDS011;35483;50.828;3.228;2023-04-24T00:03:26;4.85;;;3.80;;
49578;SDS011;35483;50.828;3.228;2023-04-24T00:05:53;5.00;;;4.07;;
49578;SDS011;35483;50.828;3.228;2023-04-24T00:08:20;4.60;;;3.67;;
49578;SDS011;35483;50.828;3.228;2023-04-24T00:10:47;3.80;;;3.20;;
49578;SDS011;35483;50.828;3.228;2023-04-24T00:13:13;3.72;;;3.40;;
49578;SDS011;35483;50.828;3.228;2023-04-24T00:15:39;4.30;;;3.75;;
49578;SDS011;35483;50.828;3.228;2023-04-24T00:18:04;3.63;;;3.33;;
49578;SDS011;35483;50.828;3.228;2023-04-24T00:20:30;4.68;;;3.33;;
49578;SDS011;35483;50.828;3.228;2023-04-24T00:22:57;3.08;;;2.78;;
49578;SDS011;35483;50.828;3.228;2023-04-24T00:25:23;4.25;;;3.28;;
49578;SDS011;35483;50.828;3.228;2023-04-24T00:27:49;3.58;;;2.88;;
49578;SDS011;35483;50.828;3.228;2023-04-24T00:30:15;4.53;;;3.65;;
49578;SDS011;35483;50.828;3.228;2023-04-24T00:32:42;5.15;;;3.33;;
49578;SDS011;35483;50.828;3.228;2023-04-24T00:35:08;4.10;;;3.75;;
49578;SDS011;35483;50.828;3.228;2023-04-24T00:37:33;4.70;;;4.13;;
49578;SDS011;35483;50.828;3.228;2023-04-24T00:39:59;4.82;;;4.43;;
49578;SDS011;35483;50.828;3.228;2023-04-24T00:42:25;4.97;;;4.47;;
49578;SDS011;35483;50.828;3.228;2023-04-24T00:44:51;6.00;;;5.40;;
49578;SDS011;35483;50.828;3.228;2023-04-24T00:47:18;6.57;;;5.00;;
49578;SDS011;35483;50.828;3.228;2023-04-24T00:49:44;6.85;;;5.80;;
49578;SDS011;35483;50.828;3.228;2023-04-24T00:52:10;6.45;;;5.68;;
49578;SDS011;35483;50.828;3.228;2023-04-24T00:54:37;6.82;;;5.55;;
49578;SDS011;35483;50.828;3.228;2023-04-24T00:57:03;8.93;;;6.57;;
49578;SDS011;35483;50.828;3.228;2023-04-24T00:59:29;8.18;;;6.32;;
49578;SDS011;35483;50.828;3.228;2023-04-24T01:01:56;8.65;;;6.22;;
49578;SDS011;35483;50.828;3.228;2023-04-24T01:04:23;7.93;;;6.60;;
49578;SDS011;35483;50.828;3.228;2023-04-24T01:06:51;8.40;;;6.90;;
49578;SDS011;35483;50.828;3.228;2023-04-24T01:09:18;9.32;;;7.03;;
49578;SDS011;35483;50.828;3.228;2023-04-24T01:11:46;9.50;;;7.45;;
49578;SDS011;35483;50.828;3.228;2023-04-24T01:14:12;9.80;;;7.38;;
49578;SDS011;35483;50.828;3.228;2023-04-24T01:16:38;10.13;;;7.97;;
49578;SDS011;35483;50.828;3.228;2023-04-24T01:19:05;8.48;;;6.70;;
49578;SDS011;35483;50.828;3.228;2023-04-24T01:21:32;9.43;;;7.07;;
49578;SDS011;35483;50.828;3.228;2023-04-24T01:24:01;7.72;;;6.18;;
49578;SDS011;35483;50.828;3.228;2023-04-24T01:26:27;7.50;;;6.70;;
49578;SDS011;35483;50.828;3.228;2023-04-24T01:28:53;10.20;;;6.93;;
49578;SDS011;35483;50.828;3.228;2023-04-24T01:31:19;9.18;;;6.03;;
49578;SDS011;35483;50.828;3.228;2023-04-24T01:33:45;10.95;;;6.43;;
49578;SDS011;35483;50.828;3.228;2023-04-24T01:36:12;9.40;;;6.20;;
49578;SDS011;35483;50.828;3.228;2023-04-24T01:38:39;6.93;;;6.20;;
49578;SDS011;35483;50.828;3.228;2023-04-24T01:41:05;8.88;;;6.75;;
49578;SDS011;35483;50.828;3.228;2023-04-24T01:43:30;9.38;;;6.25;;
49578;SDS011;35483;50.828;3.228;2023-04-24T01:45:57;7.68;;;5.97;;
49578;SDS011;35483;50.828;3.228;2023-04-24T01:48:23;7.30;;;6.38;;
49578;SDS011;35483;50.828;3.228;2023-04-24T01:50:49;7.90;;;6.68;;
49578;SDS011;35483;50.828;3.228;2023-04-24T01:53:15;8.68;;;7.30;;
49578;SDS011;35483;50.828;3.228;2023-04-24T01:55:40;8.32;;;6.47;;
49578;SDS011;35483;50.828;3.228;2023-04-24T01:58:06;10.43;;;7.05;;
49578;SDS011;35483;50.828;3.228;2023-04-24T02:00:32;8.73;;;6.90;;
49578;SDS011;35483;50.828;3.228;2023-04-24T02:02:58;8.50;;;6.53;;
49578;SDS011;35483;50.828;3.228;2023-04-24T02:05:24;9.07;;;7.20;;
49578;SDS011;35483;50.828;3.228;2023-04-24T02:07:49;10.55;;;8.23;;
49578;SDS011;35483;50.828;3.228;2023-04-24T02:10:15;10.10;;;7.32;;
49578;SDS011;35483;50.828;3.228;2023-04-24T02:12:41;9.98;;;8.52;;
49578;SDS011;35483;50.828;3.228;2023-04-24T02:15:07;9.77;;;8.02;;
49578;SDS011;35483;50.828;3.228;2023-04-24T02:17:33;10.57;;;8.18;;
49578;SDS011;35483;50.828;3.228;2023-04-24T02:19:58;13.18;;;9.32;;
49578;SDS011;35483;50.828;3.228;2023-04-24T02:22:24;11.65;;;8.82;;
49578;SDS011;35483;50.828;3.228;2023-04-24T02:24:50;9.10;;;7.50;;
49578;SDS011;35483;50.828;3.228;2023-04-24T02:27:16;9.85;;;6.80;;
49578;SDS011;35483;50.828;3.228;2023-04-24T02:29:41;9.05;;;6.50;;
49578;SDS011;35483;50.828;3.228;2023-04-24T02:32:07;9.52;;;7.28;;
49578;SDS011;35483;50.828;3.228;2023-04-24T02:34:37;7.47;;;6.20;;
49578;SDS011;35483;50.828;3.228;2023-04-24T02:37:03;7.90;;;6.18;;
49578;SDS011;35483;50.828;3.228;2023-04-24T02:39:29;9.63;;;6.05;;
49578;SDS011;35483;50.828;3.228;2023-04-24T02:41:54;7.18;;;6.05;;
49578;SDS011;35483;50.828;3.228;2023-04-24T02:44:20;7.80;;;6.20;;
49578;SDS011;35483;50.828;3.228;2023-04-24T02:46:47;9.23;;;7.05;;
49578;SDS011;35483;50.828;3.228;2023-04-24T02:49:13;9.23;;;6.85;;
49578;SDS011;35483;50.828;3.228;2023-04-24T02:51:39;9.57;;;7.82;;
49578;SDS011;35483;50.828;3.228;2023-04-24T02:54:07;13.27;;;9.00;;
49578;SDS011;35483;50.828;3.228;2023-04-24T02:56:34;13.85;;;8.80;;
49578;SDS011;35483;50.828;3.228;2023-04-24T02:59:00;12.02;;;9.45;;
49578;SDS011;35483;50.828;3.228;2023-04-24T03:01:25;13.65;;;9.90;;
49578;SDS011;35483;50.828;3.228;2023-04-24T03:03:51;12.60;;;10.63;;
49578;SDS011;35483;50.828;3.228;2023-04-24T03:06:17;16.20;;;11.90;;
49578;SDS011;35483;50.828;3.228;2023-04-24T03:08:42;13.18;;;10.25;;
49578;SDS011;35483;50.828;3.228;2023-04-24T03:11:08;14.13;;;11.38;;
49578;SDS011;35483;50.828;3.228;2023-04-24T03:13:34;18.85;;;11.75;;
49578;SDS011;35483;50.828;3.228;2023-04-24T03:16:00;14.73;;;10.43;;
49578;SDS011;35483;50.828;3.228;2023-04-24T03:18:26;16.75;;;11.63;;
49578;SDS011;35483;50.828;3.228;2023-04-24T03:20:51;14.35;;;11.02;;
49578;SDS011;35483;50.828;3.228;2023-04-24T03:23:17;16.05;;;11.20;;
49578;SDS011;35483;50.828;3.228;2023-04-24T03:25:43;18.00;;;11.82;;
49578;SDS011;35483;50.828;3.228;2023-04-24T03:28:09;16.27;;;12.05;;
49578;SDS011;35483;50.828;3.228;2023-04-24T03:30:34;16.38;;;12.13;;
49578;SDS011;35483;50.828;3.228;2023-04-24T03:33:00;14.55;;;10.73;;
49578;SDS011;35483;50.828;3.228;2023-04-24T03:35:26;13.65;;;10.35;;
49578;SDS011;35483;50.828;3.228;2023-04-24T03:37:53;14.68;;;10.13;;
49578;SDS011;35483;50.828;3.228;2023-04-24T03:40:18;15.27;;;10.35;;
49578;SDS011;35483;50.828;3.228;2023-04-24T03:42:44;12.38;;;10.15;;
49578;SDS011;35483;50.828;3.228;2023-04-24T03:45:10;16.52;;;9.45;;
49578;SDS011;35483;50.828;3.228;2023-04-24T03:47:35;12.95;;;9.35;;
49578;SDS011;35483;50.828;3.228;2023-04-24T03:50:01;12.10;;;9.30;;
49578;SDS011;35483;50.828;3.228;2023-04-24T03:52:28;13.10;;;9.63;;
49578;SDS011;35483;50.828;3.228;2023-04-24T03:54:53;12.07;;;9.48;;
49578;SDS011;35483;50.828;3.228;2023-04-24T03:57:20;16.42;;;9.93;;
49578;SDS011;35483;50.828;3.228;2023-04-24T03:59:46;14.05;;;10.30;;
49578;SDS011;35483;50.828;3.228;2023-04-24T04:02:12;14.93;;;9.45;;
49578;SDS011;35483;50.828;3.228;2023-04-24T04:04:37;12.43;;;9.73;;
49578;SDS011;35483;50.828;3.228;2023-04-24T04:07:03;14.95;;;9.80;;
49578;SDS011;35483;50.828;3.228;2023-04-24T04:09:30;12.15;;;9.63;;
49578;SDS011;35483;50.828;3.228;2023-04-24T04:11:56;16.15;;;10.88;;
49578;SDS011;35483;50.828;3.228;2023-04-24T04:14:22;14.10;;;9.40;;
49578;SDS011;35483;50.828;3.228;2023-04-24T04:16:48;15.75;;;9.60;;
49578;SDS011;35483;50.828;3.228;2023-04-24T04:19:14;11.68;;;8.70;;
49578;SDS011;35483;50.828;3.228;2023-04-24T04:21:40;13.13;;;9.23;;
49578;SDS011;35483;50.828;3.228;2023-04-24T04:24:06;9.82;;;7.90;;
49578;SDS011;35483;50.828;3.228;2023-04-24T04:26:32;12.05;;;8.57;;
49578;SDS011;35483;50.828;3.228;2023-04-24T04:28:58;13.13;;;9.05;;
49578;SDS011;35483;50.828;3.228;2023-04-24T04:31:25;14.23;;;9.65;;
49578;SDS011;35483;50.828;3.228;2023-04-24T04:33:51;11.27;;;8.90;;
49578;SDS011;35483;50.828;3.228;2023-04-24T04:36:17;13.00;;;8.88;;
49578;SDS011;35483;50.828;3.228;2023-04-24T04:38:43;12.05;;;8.30;;
49578;SDS011;35483;50.828;3.228;2023-04-24T04:41:09;12.15;;;8.70;;
49578;SDS011;35483;50.828;3.228;2023-04-24T04:43:35;12.50;;;9.80;;
49578;SDS011;35483;50.828;3.228;2023-04-24T04:46:03;12.15;;;8.52;;
49578;SDS011;35483;50.828;3.228;2023-04-24T04:48:28;14.85;;;9.02;;
49578;SDS011;35483;50.828;3.228;2023-04-24T04:50:56;11.48;;;8.40;;
49578;SDS011;35483;50.828;3.228;2023-04-24T04:53:23;13.55;;;9.32;;
49578;SDS011;35483;50.828;3.228;2023-04-24T04:55:48;14.30;;;8.80;;
49578;SDS011;35483;50.828;3.228;2023-04-24T04:58:14;11.70;;;9.18;;
49578;SDS011;35483;50.828;3.228;2023-04-24T05:00:40;10.00;;;8.13;;
49578;SDS011;35483;50.828;3.228;2023-04-24T05:03:06;13.55;;;9.45;;
49578;SDS011;35483;50.828;3.228;2023-04-24T05:05:32;15.45;;;9.55;;
49578;SDS011;35483;50.828;3.228;2023-04-24T05:07:58;13.60;;;9.30;;
49578;SDS011;35483;50.828;3.228;2023-04-24T05:10:23;13.15;;;9.32;;
49578;SDS011;35483;50.828;3.228;2023-04-24T05:12:49;15.88;;;10.23;;
49578;SDS011;35483;50.828;3.228;2023-04-24T05:15:15;14.23;;;10.00;;
49578;SDS011;35483;50.828;3.228;2023-04-24T05:17:40;14.25;;;9.35;;
49578;SDS011;35483;50.828;3.228;2023-04-24T05:20:06;14.88;;;10.15;;
49578;SDS011;35483;50.828;3.228;2023-04-24T05:22:33;12.82;;;9.68;;
49578;SDS011;35483;50.828;3.228;2023-04-24T05:24:58;14.60;;;10.02;;
49578;SDS011;35483;50.828;3.228;2023-04-24T05:27:25;14.45;;;9.68;;
49578;SDS011;35483;50.828;3.228;2023-04-24T05:29:51;13.73;;;10.30;;
49578;SDS011;35483;50.828;3.228;2023-04-24T05:32:17;13.20;;;9.57;;
49578;SDS011;35483;50.828;3.228;2023-04-24T05:34:42;13.77;;;9.23;;
49578;SDS011;35483;50.828;3.228;2023-04-24T05:37:08;13.75;;;9.15;;
49578;SDS011;35483;50.828;3.228;2023-04-24T05:39:35;12.70;;;9.32;;
49578;SDS011;35483;50.828;3.228;2023-04-24T05:42:01;15.75;;;10.63;;
49578;SDS011;35483;50.828;3.228;2023-04-24T05:44:29;19.85;;;11.10;;
49578;SDS011;35483;50.828;3.228;2023-04-24T05:46:55;15.95;;;10.82;;
49578;SDS011;35483;50.828;3.228;2023-04-24T05:49:21;16.88;;;11.05;;
49578;SDS011;35483;50.828;3.228;2023-04-24T05:51:47;17.02;;;10.48;;
49578;SDS011;35483;50.828;3.228;2023-04-24T05:54:14;14.73;;;10.50;;
49578;SDS011;35483;50.828;3.228;2023-04-24T05:56:40;13.23;;;10.32;;
49578;SDS011;35483;50.828;3.228;2023-04-24T05:59:06;16.30;;;11.00;;
49578;SDS011;35483;50.828;3.228;2023-04-24T06:01:32;17.75;;;11.07;;
49578;SDS011;35483;50.828;3.228;2023-04-24T06:03:58;16.17;;;10.70;;
49578;SDS011;35483;50.828;3.228;2023-04-24T06:06:24;16.15;;;10.95;;
49578;SDS011;35483;50.828;3.228;2023-04-24T06:08:51;16.23;;;10.90;;
49578;SDS011;35483;50.828;3.228;2023-04-24T06:11:16;18.17;;;12.30;;
49578;SDS011;35483;50.828;3.228;2023-04-24T06:13:42;13.88;;;10.88;;
49578;SDS011;35483;50.828;3.228;2023-04-24T06:16:08;16.98;;;11.07;;
49578;SDS011;35483;50.828;3.228;2023-04-24T06:18:34;15.82;;;11.30;;
49578;SDS011;35483;50.828;3.228;2023-04-24T06:21:00;13.88;;;10.82;;
49578;SDS011;35483;50.828;3.228;2023-04-24T06:23:26;16.48;;;11.02;;
49578;SDS011;35483;50.828;3.228;2023-04-24T06:25:51;15.48;;;11.10;;
49578;SDS011;35483;50.828;3.228;2023-04-24T06:28:17;19.55;;;11.73;;
49578;SDS011;35483;50.828;3.228;2023-04-24T06:30:43;19.17;;;11.10;;
49578;SDS011;35483;50.828;3.228;2023-04-24T06:33:09;17.45;;;11.40;;
49578;SDS011;35483;50.828;3.228;2023-04-24T06:35:36;16.20;;;10.05;;
49578;SDS011;35483;50.828;3.228;2023-04-24T06:38:03;16.38;;;10.60;;
49578;SDS011;35483;50.828;3.228;2023-04-24T06:40:29;17.23;;;11.13;;
49578;SDS011;35483;50.828;3.228;2023-04-24T06:42:55;17.50;;;11.32;;
49578;SDS011;35483;50.828;3.228;2023-04-24T06:45:21;11.95;;;9.52;;
49578;SDS011;35483;50.828;3.228;2023-04-24T06:47:46;11.48;;;9.30;;
49578;SDS011;35483;50.828;3.228;2023-04-24T06:50:12;15.20;;;9.73;;
49578;SDS011;35483;50.828;3.228;2023-04-24T06:52:38;15.32;;;9.07;;
49578;SDS011;35483;50.828;3.228;2023-04-24T06:55:04;13.25;;;9.80;;
49578;SDS011;35483;50.828;3.228;2023-04-24T06:57:31;16.23;;;10.02;;
49578;SDS011;35483;50.828;3.228;2023-04-24T06:59:56;13.90;;;8.73;;
49578;SDS011;35483;50.828;3.228;2023-04-24T07:02:22;14.75;;;8.32;;
49578;SDS011;35483;50.828;3.228;2023-04-24T07:04:48;12.07;;;8.70;;
49578;SDS011;35483;50.828;3.228;2023-04-24T07:07:14;11.50;;;8.00;;
49578;SDS011;35483;50.828;3.228;2023-04-24T07:09:40;9.07;;;7.82;;
49578;SDS011;35483;50.828;3.228;2023-04-24T07:12:07;11.50;;;8.38;;
49578;SDS011;35483;50.828;3.228;2023-04-24T07:14:35;12.13;;;8.30;;
49578;SDS011;35483;50.828;3.228;2023-04-24T07:17:02;14.05;;;10.10;;
49578;SDS011;35483;50.828;3.228;2023-04-24T07:19:31;13.77;;;10.10;;
49578;SDS011;35483;50.828;3.228;2023-04-24T07:21:59;12.18;;;9.05;;
49578;SDS011;35483;50.828;3.228;2023-04-24T07:24:25;13.82;;;9.00;;
49578;SDS011;35483;50.828;3.228;2023-04-24T07:26:51;11.82;;;8.27;;
49578;SDS011;35483;50.828;3.228;2023-04-24T07:29:18;12.35;;;8.68;;
49578;SDS011;35483;50.828;3.228;2023-04-24T07:31:44;12.07;;;8.30;;
49578;SDS011;35483;50.828;3.228;2023-04-24T07:34:09;14.15;;;8.02;;
49578;SDS011;35483;50.828;3.228;2023-04-24T07:36:35;13.85;;;8.43;;
49578;SDS011;35483;50.828;3.228;2023-04-24T07:39:03;11.73;;;7.95;;
49578;SDS011;35483;50.828;3.228;2023-04-24T07:41:33;9.88;;;6.50;;
49578;SDS011;35483;50.828;3.228;2023-04-24T07:43:58;6.50;;;5.45;;
49578;SDS011;35483;50.828;3.228;2023-04-24T07:46:24;8.15;;;5.63;;
49578;SDS011;35483;50.828;3.228;2023-04-24T07:48:50;9.75;;;6.15;;
49578;SDS011;35483;50.828;3.228;2023-04-24T07:51:17;9.82;;;6.32;;
49578;SDS011;35483;50.828;3.228;2023-04-24T07:53:42;5.53;;;4.28;;
49578;SDS011;35483;50.828;3.228;2023-04-24T07:56:08;7.65;;;4.60;;
49578;SDS011;35483;50.828;3.228;2023-04-24T07:58:34;5.93;;;4.55;;
49578;SDS011;35483;50.828;3.228;2023-04-24T08:01:00;6.97;;;4.10;;
49578;SDS011;35483;50.828;3.228;2023-04-24T08:03:26;5.97;;;3.63;;
49578;SDS011;35483;50.828;3.228;2023-04-24T08:05:52;9.82;;;5.05;;
49578;SDS011;35483;50.828;3.228;2023-04-24T08:08:19;5.07;;;3.92;;
49578;SDS011;35483;50.828;3.228;2023-04-24T08:10:47;7.82;;;4.50;;
49578;SDS011;35483;50.828;3.228;2023-04-24T08:13:12;5.65;;;4.38;;
49578;SDS011;35483;50.828;3.228;2023-04-24T08:15:38;8.55;;;5.13;;
49578;SDS011;35483;50.828;3.228;2023-04-24T08:18:04;9.32;;;5.07;;
49578;SDS011;35483;50.828;3.228;2023-04-24T08:20:30;11.40;;;6.80;;
49578;SDS011;35483;50.828;3.228;2023-04-24T08:22:56;10.35;;;6.45;;
49578;SDS011;35483;50.828;3.228;2023-04-24T08:25:22;9.65;;;5.93;;
49578;SDS011;35483;50.828;3.228;2023-04-24T08:27:50;7.60;;;4.82;;
49578;SDS011;35483;50.828;3.228;2023-04-24T08:30:16;8.27;;;5.20;;
49578;SDS011;35483;50.828;3.228;2023-04-24T08:32:42;8.98;;;5.53;;
49578;SDS011;35483;50.828;3.228;2023-04-24T08:35:08;13.20;;;6.53;;
49578;SDS011;35483;50.828;3.228;2023-04-24T08:37:34;11.05;;;5.88;;
49578;SDS011;35483;50.828;3.228;2023-04-24T08:40:01;8.85;;;5.45;;
49578;SDS011;35483;50.828;3.228;2023-04-24T08:42:41;8.68;;;7.35;;
49578;SDS011;35483;50.828;3.228;2023-04-24T08:45:10;8.52;;;6.28;;
49578;SDS011;35483;50.828;3.228;2023-04-24T08:47:40;10.45;;;7.72;;
49578;SDS011;35483;50.828;3.228;2023-04-24T08:50:07;7.75;;;6.10;;
49578;SDS011;35483;50.828;3.228;2023-04-24T08:52:33;8.25;;;6.72;;
49578;SDS011;35483;50.828;3.228;2023-04-24T08:55:00;9.18;;;6.15;;
49578;SDS011;35483;50.828;3.228;2023-04-24T08:57:26;10.07;;;7.45;;
49578;SDS011;35483;50.828;3.228;2023-04-24T08:59:53;13.43;;;8.45;;
49578;SDS011;35483;50.828;3.228;2023-04-24T09:02:19;11.48;;;7.97;;
49578;SDS011;35483;50.828;3.228;2023-04-24T09:04:46;10.57;;;7.72;;
49578;SDS011;35483;50.828;3.228;2023-04-24T09:07:14;13.27;;;9.25;;
49578;SDS011;35483;50.828;3.228;2023-04-24T09:09:41;11.75;;;7.75;;
49578;SDS011;35483;50.828;3.228;2023-04-24T09:12:07;11.63;;;7.78;;
49578;SDS011;35483;50.828;3.228;2023-04-24T09:14:35;10.27;;;7.82;;
49578;SDS011;35483;50.828;3.228;2023-04-24T09:17:03;10.38;;;7.65;;
49578;SDS011;35483;50.828;3.228;2023-04-24T09:19:29;10.68;;;7.53;;
49578;SDS011;35483;50.828;3.228;2023-04-24T09:21:56;11.50;;;8.45;;
49578;SDS011;35483;50.828;3.228;2023-04-24T09:24:22;10.85;;;7.20;;
49578;SDS011;35483;50.828;3.228;2023-04-24T09:26:48;10.40;;;7.40;;
49578;SDS011;35483;50.828;3.228;2023-04-24T09:29:22;10.23;;;7.45;;
49578;SDS011;35483;50.828;3.228;2023-04-24T09:31:48;10.93;;;7.80;;
49578;SDS011;35483;50.828;3.228;2023-04-24T09:34:13;12.43;;;8.20;;
49578;SDS011;35483;50.828;3.228;2023-04-24T09:36:40;9.93;;;7.43;;
49578;SDS011;35483;50.828;3.228;2023-04-24T09:39:08;10.27;;;6.85;;
49578;SDS011;35483;50.828;3.228;2023-04-24T09:41:52;9.48;;;7.05;;
49578;SDS011;35483;50.828;3.228;2023-04-24T09:44:22;11.90;;;7.95;;
49578;SDS011;35483;50.828;3.228;2023-04-24T09:46:51;11.93;;;8.07;;
49578;SDS011;35483;50.828;3.228;2023-04-24T09:49:25;11.10;;;7.82;;
49578;SDS011;35483;50.828;3.228;2023-04-24T09:52:02;10.63;;;8.23;;
49578;SDS011;35483;50.828;3.228;2023-04-24T09:54:32;12.60;;;7.80;;
49578;SDS011;35483;50.828;3.228;2023-04-24T09:56:58;11.23;;;8.25;;
49578;SDS011;35483;50.828;3.228;2023-04-24T09:59:25;12.52;;;7.07;;
49578;SDS011;35483;50.828;3.228;2023-04-24T10:01:50;10.57;;;8.07;;
49578;SDS011;35483;50.828;3.228;2023-04-24T10:04:21;10.20;;;6.70;;
49578;SDS011;35483;50.828;3.228;2023-04-24T10:06:49;10.57;;;7.40;;
49578;SDS011;35483;50.828;3.228;2023-04-24T10:09:21;13.52;;;8.25;;
49578;SDS011;35483;50.828;3.228;2023-04-24T10:11:51;11.60;;;8.43;;
49578;SDS011;35483;50.828;3.228;2023-04-24T10:14:21;11.55;;;7.88;;
49578;SDS011;35483;50.828;3.228;2023-04-24T10:16:48;9.65;;;7.43;;
49578;SDS011;35483;50.828;3.228;2023-04-24T10:19:17;10.05;;;7.00;;
49578;SDS011;35483;50.828;3.228;2023-04-24T10:21:45;8.88;;;6.85;;
49578;SDS011;35483;50.828;3.228;2023-04-24T10:24:15;9.60;;;7.10;;
49578;SDS011;35483;50.828;3.228;2023-04-24T10:26:43;7.90;;;6.20;;
49578;SDS011;35483;50.828;3.228;2023-04-24T10:29:10;10.65;;;7.70;;
49578;SDS011;35483;50.828;3.228;2023-04-24T10:31:38;10.25;;;6.50;;
49578;SDS011;35483;50.828;3.228;2023-04-24T10:34:05;9.73;;;7.47;;
49578;SDS011;35483;50.828;3.228;2023-04-24T10:36:32;11.88;;;7.18;;
49578;SDS011;35483;50.828;3.228;2023-04-24T10:39:00;11.82;;;7.28;;
49578;SDS011;35483;50.828;3.228;2023-04-24T10:41:27;7.97;;;6.90;;
49578;SDS011;35483;50.828;3.228;2023-04-24T10:44:09;8.98;;;6.60;;
49578;SDS011;35483;50.828;3.228;2023-04-24T10:46:37;9.50;;;7.30;;
49578;SDS011;35483;50.828;3.228;2023-04-24T10:49:04;10.48;;;6.88;;
49578;SDS011;35483;50.828;3.228;2023-04-24T10:54:36;9.68;;;6.82;;
49578;SDS011;35483;50.828;3.228;2023-04-24T10:59:51;10.52;;;6.32;;
49578;SDS011;35483;50.828;3.228;2023-04-24T11:02:35;11.32;;;8.85;;
49578;SDS011;35483;50.828;3.228;2023-04-24T11:05:03;7.72;;;6.63;;
49578;SDS011;35483;50.828;3.228;2023-04-24T11:07:29;8.52;;;6.75;;
49578;SDS011;35483;50.828;3.228;2023-04-24T11:10:25;8.93;;;7.50;;
49578;SDS011;35483;50.828;3.228;2023-04-24T11:12:53;9.70;;;7.97;;
49578;SDS011;35483;50.828;3.228;2023-04-24T11:15:19;10.15;;;7.45;;
49578;SDS011;35483;50.828;3.228;2023-04-24T11:17:45;10.18;;;7.88;;
49578;SDS011;35483;50.828;3.228;2023-04-24T11:20:11;8.90;;;6.97;;
49578;SDS011;35483;50.828;3.228;2023-04-24T11:22:41;11.65;;;8.60;;
49578;SDS011;35483;50.828;3.228;2023-04-24T11:25:08;11.63;;;7.95;;
49578;SDS011;35483;50.828;3.228;2023-04-24T11:30:10;8.38;;;7.03;;
49578;SDS011;35483;50.828;3.228;2023-04-24T11:32:37;11.13;;;7.80;;
49578;SDS011;35483;50.828;3.228;2023-04-24T11:35:08;12.05;;;8.45;;
49578;SDS011;35483;50.828;3.228;2023-04-24T11:37:47;10.10;;;8.02;;
49578;SDS011;35483;50.828;3.228;2023-04-24T11:40:14;8.60;;;7.07;;
49578;SDS011;35483;50.828;3.228;2023-04-24T11:42:45;7.47;;;6.65;;
49578;SDS011;35483;50.828;3.228;2023-04-24T11:45:12;9.25;;;6.45;;
49578;SDS011;35483;50.828;3.228;2023-04-24T11:47:40;8.02;;;7.25;;
49578;SDS011;35483;50.828;3.228;2023-04-24T11:50:08;7.25;;;6.45;;
49578;SDS011;35483;50.828;3.228;2023-04-24T11:52:53;6.65;;;5.82;;
49578;SDS011;35483;50.828;3.228;2023-04-24T11:57:46;8.32;;;5.70;;
49578;SDS011;35483;50.828;3.228;2023-04-24T12:00:18;5.05;;;4.32;;
49578;SDS011;35483;50.828;3.228;2023-04-24T12:02:45;7.05;;;6.35;;
49578;SDS011;35483;50.828;3.228;2023-04-24T12:05:21;6.25;;;5.40;;
49578;SDS011;35483;50.828;3.228;2023-04-24T12:07:51;6.95;;;5.80;;
49578;SDS011;35483;50.828;3.228;2023-04-24T12:10:21;5.90;;;5.30;;
49578;SDS011;35483;50.828;3.228;2023-04-24T12:12:55;7.07;;;5.03;;
49578;SDS011;35483;50.828;3.228;2023-04-24T12:15:22;5.70;;;5.07;;
49578;SDS011;35483;50.828;3.228;2023-04-24T12:17:50;5.22;;;4.70;;
49578;SDS011;35483;50.828;3.228;2023-04-24T12:20:17;5.75;;;5.22;;
49578;SDS011;35483;50.828;3.228;2023-04-24T12:22:43;5.32;;;4.50;;
49578;SDS011;35483;50.828;3.228;2023-04-24T12:25:14;5.07;;;4.53;;
49578;SDS011;35483;50.828;3.228;2023-04-24T12:27:43;10.93;;;5.00;;
49578;SDS011;35483;50.828;3.228;2023-04-24T12:30:13;6.80;;;4.97;;
49578;SDS011;35483;50.828;3.228;2023-04-24T12:32:45;5.25;;;4.75;;
49578;SDS011;35483;50.828;3.228;2023-04-24T12:35:12;4.82;;;4.03;;
49578;SDS011;35483;50.828;3.228;2023-04-24T12:37:41;4.75;;;3.60;;
49578;SDS011;35483;50.828;3.228;2023-04-24T12:40:11;5.07;;;4.47;;
49578;SDS011;35483;50.828;3.228;2023-04-24T12:42:48;4.45;;;3.10;;
49578;SDS011;35483;50.828;3.228;2023-04-24T12:45:15;4.68;;;3.67;;
49578;SDS011;35483;50.828;3.228;2023-04-24T12:47:43;4.28;;;3.60;;
49578;SDS011;35483;50.828;3.228;2023-04-24T12:50:10;3.72;;;3.35;;
49578;SDS011;35483;50.828;3.228;2023-04-24T12:52:40;4.25;;;3.75;;
49578;SDS011;35483;50.828;3.228;2023-04-24T12:55:07;6.70;;;3.45;;
49578;SDS011;35483;50.828;3.228;2023-04-24T12:57:33;4.53;;;2.80;;
49578;SDS011;35483;50.828;3.228;2023-04-24T13:00:01;3.80;;;3.17;;
49578;SDS011;35483;50.828;3.228;2023-04-24T13:02:28;2.85;;;2.38;;
49578;SDS011;35483;50.828;3.228;2023-04-24T13:04:56;6.55;;;3.58;;
49578;SDS011;35483;50.828;3.228;2023-04-24T13:07:22;3.95;;;3.45;;
49578;SDS011;35483;50.828;3.228;2023-04-24T13:09:48;4.30;;;3.28;;
49578;SDS011;35483;50.828;3.228;2023-04-24T13:12:15;4.15;;;3.50;;
49578;SDS011;35483;50.828;3.228;2023-04-24T13:14:41;4.65;;;4.20;;
49578;SDS011;35483;50.828;3.228;2023-04-24T13:17:07;4.70;;;3.60;;
49578;SDS011;35483;50.828;3.228;2023-04-24T13:19:36;5.80;;;3.95;;
49578;SDS011;35483;50.828;3.228;2023-04-24T13:22:02;4.97;;;3.50;;
49578;SDS011;35483;50.828;3.228;2023-04-24T13:24:29;5.65;;;3.78;;
49578;SDS011;35483;50.828;3.228;2023-04-24T13:26:56;6.20;;;3.90;;
49578;SDS011;35483;50.828;3.228;2023-04-24T13:29:22;6.15;;;4.20;;
49578;SDS011;35483;50.828;3.228;2023-04-24T13:31:50;5.05;;;3.90;;
49578;SDS011;35483;50.828;3.228;2023-04-24T13:34:16;4.72;;;3.28;;
49578;SDS011;35483;50.828;3.228;2023-04-24T13:36:42;5.05;;;3.67;;
49578;SDS011;35483;50.828;3.228;2023-04-24T13:39:09;3.92;;;3.17;;
49578;SDS011;35483;50.828;3.228;2023-04-24T13:41:35;4.70;;;3.20;;
49578;SDS011;35483;50.828;3.228;2023-04-24T13:44:02;3.60;;;2.70;;
49578;SDS011;35483;50.828;3.228;2023-04-24T13:46:28;5.35;;;3.22;;
49578;SDS011;35483;50.828;3.228;2023-04-24T13:48:54;4.93;;;3.40;;
49578;SDS011;35483;50.828;3.228;2023-04-24T13:51:20;2.95;;;2.65;;
49578;SDS011;35483;50.828;3.228;2023-04-24T13:53:45;4.90;;;3.08;;
49578;SDS011;35483;50.828;3.228;2023-04-24T13:56:12;2.75;;;2.55;;
49578;SDS011;35483;50.828;3.228;2023-04-24T13:58:39;3.15;;;2.50;;
49578;SDS011;35483;50.828;3.228;2023-04-24T14:01:05;3.63;;;2.80;;
49578;SDS011;35483;50.828;3.228;2023-04-24T14:03:31;2.95;;;1.95;;
49578;SDS011;35483;50.828;3.228;2023-04-24T14:05:58;2.88;;;2.50;;
49578;SDS011;35483;50.828;3.228;2023-04-24T14:08:24;4.90;;;2.60;;
49578;SDS011;35483;50.828;3.228;2023-04-24T14:10:50;3.28;;;2.03;;
49578;SDS011;35483;50.828;3.228;2023-04-24T14:13:16;3.30;;;2.60;;
49578;SDS011;35483;50.828;3.228;2023-04-24T14:15:42;4.25;;;2.78;;
49578;SDS011;35483;50.828;3.228;2023-04-24T14:18:08;4.40;;;3.03;;
49578;SDS011;35483;50.828;3.228;2023-04-24T14:20:33;3.20;;;2.08;;
49578;SDS011;35483;50.828;3.228;2023-04-24T14:22:59;4.10;;;2.80;;
49578;SDS011;35483;50.828;3.228;2023-04-24T14:25:25;2.67;;;2.40;;
49578;SDS011;35483;50.828;3.228;2023-04-24T14:27:51;3.67;;;2.33;;
49578;SDS011;35483;50.828;3.228;2023-04-24T14:30:17;2.88;;;2.50;;
49578;SDS011;35483;50.828;3.228;2023-04-24T14:32:44;3.10;;;2.45;;
49578;SDS011;35483;50.828;3.228;2023-04-24T14:35:09;3.75;;;2.53;;
49578;SDS011;35483;50.828;3.228;2023-04-24T14:37:36;4.82;;;2.40;;
49578;SDS011;35483;50.828;3.228;2023-04-24T14:40:02;3.72;;;2.75;;
49578;SDS011;35483;50.828;3.228;2023-04-24T14:42:30;3.70;;;3.25;;
49578;SDS011;35483;50.828;3.228;2023-04-24T14:44:55;3.10;;;2.60;;
49578;SDS011;35483;50.828;3.228;2023-04-24T14:47:21;2.63;;;2.30;;